Terminal Aerodrome Forecast
Issued by NWS Green Bay, WI

Home | Current Version | Previous Version | Graphics & Text | Print | Product List | Glossary On
Versions: 1 2 3 4 5 6 7 8 9 10 11 12 13 14 15 16 17 18 19 20 21 22 23 24 25 26 27 28 29 30 31 32 33 34 35 36 37 38 39 40 41 42 43 44 45 46 47 48 49 50
697
FTUS43 KGRB 131727
TAFGRB
TAF
KGRB 131727Z 1318/1418 06012KT 3/4SM -SN SCT009 OVC018
      TEMPO 1318/1321 1/2SM SN OVC009
     FM132200 04018G26KT 1SM -SN SCT007 OVC015
     FM140100 01011G17KT 6SM -SN BKN025 OVC035
     FM140300 34007KT P6SM BKN035
     FM140600 31005KT P6SM SCT035
     FM141500 27005KT P6SM BKN035 BKN120=

USA.gov is the U.S. government's official web portal to all federal, state and local government web resources and services.